Time;durP1;ratioP1;P1;durP2;ratioP2;P2;SDS_P1;SDS_P2;PMS_P1;PMS_P2;Temp;Humidity;BMP_temperature;BMP_pressure;BME280_temperature;BME280_humidity;BME280_pressure;Samples;Min_cycle;Max_cycle;Signal;HPM_P1;HPM_P2
2023/06/04 00:02:05;;;;;;;;;;;16.70;60.10;;;;;;4988964;28;19913;-67
2023/06/04 00:04:31;;;;;;;;;;;16.70;60.00;;;;;;4989366;28;19921;-67
2023/06/04 00:06:56;;;;;;;;;;;16.60;60.10;;;;;;4989136;28;19920;-67
2023/06/04 00:09:22;;;;;;;;;;;16.60;60.30;;;;;;4989184;28;19913;-67
2023/06/04 00:11:47;;;;;;;;;;;16.60;60.20;;;;;;4987785;28;20274;-67
2023/06/04 00:14:14;;;;;;;;;;;16.50;60.30;;;;;;4989162;28;20263;-67
2023/06/04 00:16:40;;;;;;;;;;;16.50;60.20;;;;;;4988664;28;20005;-67
2023/06/04 00:19:06;;;;;;;;;;;16.50;60.30;;;;;;4989080;28;20122;-67
2023/06/04 00:21:32;;;;;;;;;;;16.50;60.50;;;;;;4986818;28;19913;-67
2023/06/04 00:23:57;;;;;;;;;;;16.40;60.40;;;;;;4969417;28;19966;-67
2023/06/04 00:26:23;;;;;;;;;;;16.40;60.60;;;;;;4969125;28;19910;-67
2023/06/04 00:28:48;;;;;;;;;;;16.40;60.60;;;;;;4969626;28;20263;-67
2023/06/04 00:31:14;;;;;;;;;;;16.40;60.70;;;;;;4975928;28;19914;-67
2023/06/04 00:33:40;;;;;;;;;;;16.40;60.50;;;;;;4987920;28;19945;-67
2023/06/04 00:36:05;;;;;;;;;;;16.30;60.70;;;;;;4988843;28;20011;-67
2023/06/04 00:38:31;;;;;;;;;;;16.30;60.60;;;;;;4987260;28;19914;-67
2023/06/04 00:40:56;;;;;;;;;;;16.20;60.70;;;;;;4988704;28;19936;-67
2023/06/04 00:43:25;;;;;;;;;;;16.30;60.80;;;;;;4988577;28;20378;-67
2023/06/04 00:45:51;;;;;;;;;;;16.20;60.90;;;;;;4988618;28;19920;-67
2023/06/04 00:48:17;;;;;;;;;;;16.10;61.00;;;;;;4987528;28;19996;-67
2023/06/04 00:50:42;;;;;;;;;;;16.10;60.70;;;;;;5071992;28;20066;-67
2023/06/04 00:53:09;;;;;;;;;;;16.10;60.90;;;;;;5018462;28;19910;-67
2023/06/04 00:55:34;;;;;;;;;;;16.10;60.90;;;;;;4988295;28;19914;-67
2023/06/04 00:58:00;;;;;;;;;;;16.00;60.90;;;;;;4988135;28;19910;-67
2023/06/04 01:00:26;;;;;;;;;;;16.00;61.10;;;;;;4987088;28;19929;-67
2023/06/04 01:02:53;;;;;;;;;;;16.00;61.10;;;;;;4987064;28;20551;-67
2023/06/04 01:05:42;;;;;;;;;;;16.00;61.00;;;;;;4987204;28;19925;-67
2023/06/04 01:08:08;;;;;;;;;;;15.90;61.20;;;;;;4988373;28;19965;-67
2023/06/04 01:10:34;;;;;;;;;;;15.90;61.20;;;;;;4987998;28;20378;-67
2023/06/04 01:13:00;;;;;;;;;;;15.90;61.10;;;;;;4987969;28;19935;-67
2023/06/04 01:15:25;;;;;;;;;;;15.90;61.40;;;;;;4988396;28;20294;-67
2023/06/04 01:17:52;;;;;;;;;;;15.90;61.40;;;;;;4988165;28;19964;-67
2023/06/04 01:20:36;;;;;;;;;;;15.80;61.30;;;;;;4988272;28;20012;-67
2023/06/04 01:23:01;;;;;;;;;;;15.80;61.40;;;;;;4974971;28;19922;-67
2023/06/04 01:25:34;;;;;;;;;;;15.70;61.20;;;;;;4986214;28;19970;-67
2023/06/04 01:28:00;;;;;;;;;;;15.70;61.30;;;;;;5007865;28;19917;-67
2023/06/04 01:30:28;;;;;;;;;;;15.70;61.50;;;;;;5005478;28;20693;-67
2023/06/04 01:32:53;;;;;;;;;;;15.70;61.60;;;;;;4987283;28;19910;-67
2023/06/04 01:35:20;;;;;;;;;;;15.60;61.50;;;;;;4987705;28;19971;-66
2023/06/04 01:37:46;;;;;;;;;;;15.60;61.50;;;;;;5006103;28;19919;-67
2023/06/04 01:40:11;;;;;;;;;;;15.60;61.60;;;;;;5046309;28;19912;-67
2023/06/04 01:42:37;;;;;;;;;;;15.60;61.60;;;;;;5089766;28;19934;-67
2023/06/04 01:45:03;;;;;;;;;;;15.50;61.60;;;;;;5088630;28;20002;-67
2023/06/04 01:47:28;;;;;;;;;;;15.50;61.70;;;;;;5089989;28;19909;-67
2023/06/04 01:49:54;;;;;;;;;;;15.50;61.70;;;;;;5090265;28;19916;-67
2023/06/04 01:52:21;;;;;;;;;;;15.50;61.80;;;;;;5074285;28;19908;-67
2023/06/04 01:54:48;;;;;;;;;;;15.40;61.60;;;;;;5089956;28;19954;-67
2023/06/04 01:57:14;;;;;;;;;;;15.40;61.80;;;;;;5089724;28;19912;-67
2023/06/04 01:59:41;;;;;;;;;;;15.40;61.90;;;;;;5089630;28;19922;-67
2023/06/04 02:02:06;;;;;;;;;;;15.40;61.90;;;;;;5088100;28;19923;-66
2023/06/04 02:04:32;;;;;;;;;;;15.30;61.90;;;;;;5058353;28;19914;-67
2023/06/04 02:06:59;;;;;;;;;;;15.30;61.90;;;;;;4987393;28;19913;-67
2023/06/04 02:09:25;;;;;;;;;;;15.30;62.10;;;;;;4986693;28;19914;-67
2023/06/04 02:11:51;;;;;;;;;;;15.30;62.30;;;;;;4986939;28;19914;-66
2023/06/04 02:14:16;;;;;;;;;;;15.30;62.10;;;;;;4987382;28;19971;-67
2023/06/04 02:16:42;;;;;;;;;;;15.30;62.30;;;;;;4987188;28;19966;-67
2023/06/04 02:19:07;;;;;;;;;;;15.20;62.40;;;;;;4987335;28;19957;-67
2023/06/04 02:21:33;;;;;;;;;;;15.20;62.50;;;;;;4986090;28;19910;-67
2023/06/04 02:23:58;;;;;;;;;;;15.20;62.60;;;;;;4967570;28;20412;-67
2023/06/04 02:26:24;;;;;;;;;;;15.10;62.50;;;;;;4967429;28;19922;-67
2023/06/04 02:28:50;;;;;;;;;;;15.10;62.40;;;;;;4967932;28;19914;-67
2023/06/04 02:31:15;;;;;;;;;;;15.10;62.70;;;;;;4974169;28;20050;-67
2023/06/04 02:33:41;;;;;;;;;;;15.10;62.90;;;;;;5045121;28;20668;-67
2023/06/04 02:36:08;;;;;;;;;;;15.10;62.90;;;;;;5088877;28;19919;-67
2023/06/04 02:38:34;;;;;;;;;;;15.00;63.00;;;;;;5012985;28;19918;-66
2023/06/04 02:41:00;;;;;;;;;;;15.10;63.00;;;;;;4986614;28;20378;-67
2023/06/04 02:43:25;;;;;;;;;;;15.00;63.00;;;;;;4992163;28;19914;-67
2023/06/04 02:45:51;;;;;;;;;;;15.00;63.10;;;;;;5088576;28;19912;-67
2023/06/04 02:48:16;;;;;;;;;;;15.00;63.30;;;;;;5088972;28;19912;-67
2023/06/04 02:50:45;;;;;;;;;;;15.00;63.40;;;;;;5088964;28;19919;-66
2023/06/04 02:53:10;;;;;;;;;;;15.00;63.40;;;;;;5015286;28;19947;-67
2023/06/04 02:55:36;;;;;;;;;;;15.00;63.40;;;;;;4986488;28;19972;-67
2023/06/04 02:58:02;;;;;;;;;;;14.90;63.20;;;;;;4986860;28;19925;-67
2023/06/04 03:00:28;;;;;;;;;;;14.90;63.40;;;;;;4986666;28;19910;-67
2023/06/04 03:03:00;;;;;;;;;;;14.90;63.50;;;;;;4986426;28;20290;-67
2023/06/04 03:05:26;;;;;;;;;;;14.80;63.60;;;;;;4986774;28;19935;-67
2023/06/04 03:07:53;;;;;;;;;;;14.80;63.50;;;;;;4986632;28;19914;-67
2023/06/04 03:10:18;;;;;;;;;;;14.80;63.60;;;;;;4986582;28;19971;-66
2023/06/04 03:12:44;;;;;;;;;;;14.80;63.80;;;;;;4986159;28;20351;-67
2023/06/04 03:15:10;;;;;;;;;;;14.80;64.30;;;;;;4986450;28;19918;-66
2023/06/04 03:17:35;;;;;;;;;;;14.80;63.80;;;;;;4997440;28;20018;-67
2023/06/04 03:20:01;;;;;;;;;;;14.70;63.60;;;;;;5006011;28;19922;-67
2023/06/04 03:22:28;;;;;;;;;;;14.70;63.80;;;;;;4989101;28;19922;-66
2023/06/04 03:24:53;;;;;;;;;;;14.70;63.80;;;;;;4967082;28;19910;-66
2023/06/04 03:27:19;;;;;;;;;;;14.70;63.80;;;;;;4967186;28;19922;-67
2023/06/04 03:29:45;;;;;;;;;;;14.70;63.90;;;;;;4965746;28;19914;-67
2023/06/04 03:32:12;;;;;;;;;;;14.70;63.90;;;;;;4973684;28;20016;-67
2023/06/04 03:34:38;;;;;;;;;;;14.70;63.90;;;;;;4985821;28;19921;-67
2023/06/04 03:37:03;;;;;;;;;;;14.60;64.00;;;;;;4986086;28;20644;-66
2023/06/04 03:39:29;;;;;;;;;;;14.60;64.00;;;;;;4986239;28;19952;-66
2023/06/04 03:41:55;;;;;;;;;;;14.60;64.10;;;;;;4985995;28;20355;-67
2023/06/04 03:44:21;;;;;;;;;;;14.60;64.00;;;;;;4984961;28;19909;-66
2023/06/04 03:46:46;;;;;;;;;;;14.60;64.00;;;;;;4986073;28;19921;-67
2023/06/04 03:49:13;;;;;;;;;;;14.50;64.10;;;;;;4984993;28;19913;-66
2023/06/04 03:51:38;;;;;;;;;;;14.50;64.00;;;;;;4984127;28;20279;-66
2023/06/04 03:54:04;;;;;;;;;;;14.50;64.10;;;;;;4965253;28;19922;-67
2023/06/04 03:56:30;;;;;;;;;;;14.50;64.20;;;;;;4988622;28;20063;-67
2023/06/04 03:58:55;;;;;;;;;;;14.50;64.20;;;;;;4986019;28;20034;-67
2023/06/04 04:01:21;;;;;;;;;;;14.50;64.10;;;;;;4985816;28;19949;-66
2023/06/04 04:03:49;;;;;;;;;;;14.50;64.30;;;;;;4985792;28;19921;-66
2023/06/04 04:06:15;;;;;;;;;;;14.50;64.30;;;;;;4966402;28;19914;-67
2023/06/04 04:08:42;;;;;;;;;;;14.40;64.40;;;;;;4981656;28;20686;-67
2023/06/04 04:11:08;;;;;;;;;;;14.40;64.30;;;;;;4985849;28;19968;-67
2023/06/04 04:13:33;;;;;;;;;;;14.40;64.40;;;;;;4985909;28;19951;-66
2023/06/04 04:15:59;;;;;;;;;;;14.40;64.50;;;;;;4985783;28;19976;-66
2023/06/04 04:18:25;;;;;;;;;;;14.40;64.40;;;;;;4986131;28;19910;-67
2023/06/04 04:20:51;;;;;;;;;;;14.40;64.60;;;;;;4985725;28;20433;-67
2023/06/04 04:23:16;;;;;;;;;;;14.40;64.60;;;;;;4970564;28;19922;-67
2023/06/04 04:25:44;;;;;;;;;;;14.40;64.60;;;;;;4966194;28;19914;-66
2023/06/04 04:28:09;;;;;;;;;;;14.40;64.70;;;;;;4965097;28;19921;-66
2023/06/04 04:30:35;;;;;;;;;;;14.30;64.70;;;;;;4965911;28;19915;-67
2023/06/04 04:33:01;;;;;;;;;;;14.30;64.70;;;;;;4980053;28;19910;-66
2023/06/04 04:35:26;;;;;;;;;;;14.30;64.70;;;;;;4987319;28;19955;-67
2023/06/04 04:37:52;;;;;;;;;;;14.40;64.90;;;;;;4987395;28;19922;-66
2023/06/04 04:40:17;;;;;;;;;;;14.30;64.90;;;;;;4989019;28;20277;-67
2023/06/04 04:42:43;;;;;;;;;;;14.30;64.90;;;;;;4988666;28;20776;-67
2023/06/04 04:45:09;;;;;;;;;;;14.30;65.00;;;;;;5070997;28;19916;-66
2023/06/04 04:47:34;;;;;;;;;;;14.30;65.00;;;;;;5091287;28;19916;-67
2023/06/04 04:50:00;;;;;;;;;;;14.20;65.10;;;;;;5091259;28;20456;-67
2023/06/04 04:52:25;;;;;;;;;;;14.30;65.10;;;;;;5048464;28;19914;-66
2023/06/04 04:54:55;;;;;;;;;;;14.20;65.00;;;;;;4988636;28;19953;-67
2023/06/04 04:57:21;;;;;;;;;;;14.20;65.10;;;;;;4985524;28;19914;-67
2023/06/04 04:59:46;;;;;;;;;;;14.20;64.80;;;;;;4979856;28;19918;-66
2023/06/04 05:02:12;;;;;;;;;;;14.20;64.90;;;;;;5037424;28;19914;-67
2023/06/04 05:04:37;;;;;;;;;;;14.20;65.00;;;;;;4987936;28;19910;-66
2023/06/04 05:07:03;;;;;;;;;;;14.20;65.20;;;;;;4979209;28;20343;-66
2023/06/04 05:09:28;;;;;;;;;;;14.20;65.10;;;;;;4988718;28;19921;-66
2023/06/04 05:11:54;;;;;;;;;;;14.10;65.10;;;;;;4986320;28;20264;-67
2023/06/04 05:14:19;;;;;;;;;;;14.20;65.10;;;;;;4988183;28;19925;-66
2023/06/04 05:16:45;;;;;;;;;;;14.20;65.10;;;;;;4987746;28;19910;-67
2023/06/04 05:19:10;;;;;;;;;;;14.20;65.30;;;;;;4987887;28;19920;-66
2023/06/04 05:21:36;;;;;;;;;;;14.20;65.30;;;;;;4987685;28;19996;-67
2023/06/04 05:24:02;;;;;;;;;;;14.20;65.20;;;;;;4987724;28;19922;-66
2023/06/04 05:26:29;;;;;;;;;;;14.20;65.30;;;;;;4988724;28;20299;-66
2023/06/04 05:28:55;;;;;;;;;;;14.20;65.30;;;;;;5007769;28;19965;-67
2023/06/04 05:31:21;;;;;;;;;;;14.20;65.30;;;;;;4991609;28;19921;-66
2023/06/04 05:33:47;;;;;;;;;;;14.20;65.50;;;;;;4966912;28;20013;-66
2023/06/04 05:36:13;;;;;;;;;;;14.20;65.40;;;;;;4968117;28;19972;-66
2023/06/04 05:38:39;;;;;;;;;;;14.20;65.40;;;;;;4982008;28;20008;-66
2023/06/04 05:41:04;;;;;;;;;;;14.20;65.40;;;;;;4987362;28;19914;-66
2023/06/04 05:43:30;;;;;;;;;;;14.20;65.40;;;;;;4987497;28;19953;-66
2023/06/04 05:45:55;;;;;;;;;;;14.20;65.50;;;;;;4987341;28;20286;-66
2023/06/04 05:48:21;;;;;;;;;;;14.20;65.40;;;;;;4987616;28;19920;-67
2023/06/04 05:50:47;;;;;;;;;;;14.20;65.50;;;;;;4987383;28;20453;-67
2023/06/04 05:53:12;;;;;;;;;;;14.20;65.50;;;;;;4972836;28;19914;-67
2023/06/04 05:55:38;;;;;;;;;;;14.20;65.40;;;;;;4978398;28;19924;-67
2023/06/04 05:58:04;;;;;;;;;;;14.20;65.40;;;;;;4987200;28;19918;-66
2023/06/04 06:00:29;;;;;;;;;;;14.20;65.50;;;;;;5000044;28;20526;-66
2023/06/04 06:02:55;;;;;;;;;;;14.20;65.40;;;;;;5089526;28;19916;-66
2023/06/04 06:05:20;;;;;;;;;;;14.30;65.50;;;;;;5024175;28;19914;-66
2023/06/04 06:07:46;;;;;;;;;;;14.30;65.50;;;;;;4987090;28;19993;-67
2023/06/04 06:10:13;;;;;;;;;;;14.30;65.40;;;;;;4987121;28;20301;-66
2023/06/04 06:12:38;;;;;;;;;;;14.30;65.50;;;;;;4986811;28;19997;-66
2023/06/04 06:15:05;;;;;;;;;;;14.30;65.40;;;;;;4987008;28;20028;-66
2023/06/04 06:17:31;;;;;;;;;;;14.30;65.40;;;;;;4987186;28;19917;-67
2023/06/04 06:19:56;;;;;;;;;;;14.30;65.40;;;;;;4987308;28;19914;-67
2023/06/04 06:22:22;;;;;;;;;;;14.30;65.20;;;;;;4979154;28;19918;-66
2023/06/04 06:24:50;;;;;;;;;;;14.40;65.50;;;;;;4967819;28;20352;-66
2023/06/04 06:27:17;;;;;;;;;;;14.40;65.40;;;;;;4967403;28;20367;-66
2023/06/04 06:29:43;;;;;;;;;;;14.40;65.20;;;;;;4966142;28;20003;-67
2023/06/04 06:32:10;;;;;;;;;;;14.40;65.30;;;;;;4966584;28;19953;-67
2023/06/04 06:34:37;;;;;;;;;;;14.40;65.90;;;;;;4967554;28;20347;-67
2023/06/04 06:37:02;;;;;;;;;;;14.40;65.20;;;;;;4969394;28;19999;-67
2023/06/04 06:39:28;;;;;;;;;;;14.50;65.20;;;;;;4986907;28;19995;-66
2023/06/04 06:41:53;;;;;;;;;;;14.50;65.20;;;;;;5010025;28;19920;-67
2023/06/04 06:44:19;;;;;;;;;;;14.50;65.10;;;;;;5088988;28;20001;-66
2023/06/04 06:46:44;;;;;;;;;;;14.50;65.10;;;;;;5088473;28;19985;-66
2023/06/04 06:49:10;;;;;;;;;;;14.50;65.00;;;;;;5089100;28;20006;-66
2023/06/04 06:51:35;;;;;;;;;;;14.50;65.10;;;;;;5082083;28;19912;-66
2023/06/04 06:54:01;;;;;;;;;;;14.50;65.00;;;;;;4986402;28;20373;-67
2023/06/04 06:56:26;;;;;;;;;;;14.50;64.80;;;;;;4983852;28;19921;-67
2023/06/04 06:58:52;;;;;;;;;;;14.60;64.90;;;;;;4986743;28;19914;-66
2023/06/04 07:01:17;;;;;;;;;;;14.60;64.80;;;;;;4986259;28;19910;-66
2023/06/04 07:03:43;;;;;;;;;;;14.60;65.40;;;;;;4986614;28;19917;-67
2023/06/04 07:06:09;;;;;;;;;;;14.60;64.70;;;;;;4986475;28;19914;-66
2023/06/04 07:08:35;;;;;;;;;;;14.60;64.70;;;;;;4985148;28;19953;-66
2023/06/04 07:11:01;;;;;;;;;;;14.70;64.80;;;;;;4986318;28;19959;-66
2023/06/04 07:13:27;;;;;;;;;;;14.70;64.70;;;;;;4986460;28;19913;-66
2023/06/04 07:15:53;;;;;;;;;;;14.70;64.70;;;;;;4986488;28;19914;-66
2023/06/04 07:18:18;;;;;;;;;;;14.70;64.60;;;;;;4986476;28;19920;-66
2023/06/04 07:20:44;;;;;;;;;;;14.70;64.70;;;;;;4988862;28;20279;-66
2023/06/04 07:23:09;;;;;;;;;;;14.70;64.60;;;;;;5029710;28;19920;-66
2023/06/04 07:25:35;;;;;;;;;;;14.80;64.50;;;;;;5032589;28;19910;-67
2023/06/04 07:28:03;;;;;;;;;;;14.80;64.50;;;;;;4986183;28;19914;-67
2023/06/04 07:30:30;;;;;;;;;;;14.80;64.50;;;;;;4985271;28;19913;-66
2023/06/04 07:32:56;;;;;;;;;;;14.80;64.50;;;;;;4966647;28;20611;-67
2023/06/04 07:35:21;;;;;;;;;;;14.80;64.30;;;;;;4966769;28;19922;-67
2023/06/04 07:37:48;;;;;;;;;;;14.80;64.20;;;;;;4974638;28;19914;-66
2023/06/04 07:40:14;;;;;;;;;;;14.80;64.30;;;;;;5012672;28;20422;-67
2023/06/04 07:42:40;;;;;;;;;;;14.90;64.40;;;;;;5087530;28;19908;-66
2023/06/04 07:45:06;;;;;;;;;;;14.90;64.20;;;;;;5087652;28;19962;-66
2023/06/04 07:47:32;;;;;;;;;;;14.90;64.20;;;;;;5086563;28;19966;-66
2023/06/04 07:49:57;;;;;;;;;;;14.90;64.20;;;;;;5088342;28;19919;-66
2023/06/04 07:52:22;;;;;;;;;;;15.00;64.20;;;;;;5047756;28;19983;-66
2023/06/04 07:54:48;;;;;;;;;;;15.00;64.10;;;;;;4985639;28;19918;-66
2023/06/04 07:57:13;;;;;;;;;;;15.00;64.10;;;;;;4985322;28;19993;-67
2023/06/04 07:59:39;;;;;;;;;;;15.00;64.00;;;;;;4985981;28;19956;-66
2023/06/04 08:02:05;;;;;;;;;;;15.10;64.00;;;;;;4985443;28;19949;-66
2023/06/04 08:04:31;;;;;;;;;;;15.10;64.00;;;;;;5019486;28;19912;-67
2023/06/04 08:06:56;;;;;;;;;;;15.10;63.90;;;;;;5081226;28;19920;-66
2023/06/04 08:09:22;;;;;;;;;;;15.10;63.80;;;;;;4988505;28;19921;-66
2023/06/04 08:11:48;;;;;;;;;;;15.10;63.80;;;;;;4988883;28;19910;-66
2023/06/04 08:14:14;;;;;;;;;;;15.20;63.70;;;;;;4987674;28;20353;-66
2023/06/04 08:16:40;;;;;;;;;;;15.20;63.60;;;;;;4988974;28;19917;-66
2023/06/04 08:19:07;;;;;;;;;;;15.20;63.70;;;;;;4989190;28;19941;-66
2023/06/04 08:21:33;;;;;;;;;;;15.20;63.60;;;;;;4987944;28;19914;-67
2023/06/04 08:23:59;;;;;;;;;;;15.30;63.60;;;;;;4969534;28;20457;-66
2023/06/04 08:26:25;;;;;;;;;;;15.30;63.40;;;;;;4967973;28;19921;-67
2023/06/04 08:28:51;;;;;;;;;;;15.40;63.50;;;;;;4969484;28;19914;-67
2023/06/04 08:31:17;;;;;;;;;;;15.40;63.30;;;;;;4969023;28;19914;-66
2023/06/04 08:33:44;;;;;;;;;;;15.40;63.30;;;;;;4969394;28;20320;-67
2023/06/04 08:36:10;;;;;;;;;;;15.40;63.20;;;;;;4969435;28;19914;-66
2023/06/04 08:38:35;;;;;;;;;;;15.50;63.20;;;;;;4983946;28;19913;-66
2023/06/04 08:41:14;;;;;;;;;;;15.50;63.20;;;;;;4988589;28;19921;-66
2023/06/04 08:43:43;;;;;;;;;;;15.50;63.10;;;;;;4988465;28;20420;-66
2023/06/04 08:46:09;;;;;;;;;;;15.60;63.10;;;;;;4988451;28;20380;-67
2023/06/04 08:48:35;;;;;;;;;;;15.60;63.00;;;;;;5082110;28;19920;-67
2023/06/04 08:51:02;;;;;;;;;;;15.60;63.00;;;;;;5088858;28;20246;-67
2023/06/04 08:53:27;;;;;;;;;;;15.70;63.00;;;;;;5004188;28;19913;-66
2023/06/04 08:55:53;;;;;;;;;;;15.70;62.90;;;;;;4985904;28;19920;-66
2023/06/04 08:58:19;;;;;;;;;;;15.70;62.80;;;;;;4987605;28;20509;-66
2023/06/04 09:00:44;;;;;;;;;;;15.80;62.80;;;;;;4987485;28;20382;-66
2023/06/04 09:03:11;;;;;;;;;;;15.80;62.70;;;;;;4987764;28;19910;-67
2023/06/04 09:05:36;;;;;;;;;;;15.90;62.70;;;;;;4987655;28;19929;-66
2023/06/04 09:08:04;;;;;;;;;;;15.90;62.60;;;;;;4987448;28;20256;-67
2023/06/04 09:10:30;;;;;;;;;;;15.90;62.60;;;;;;4987345;28;20003;-67
2023/06/04 09:12:56;;;;;;;;;;;16.00;62.60;;;;;;4987206;28;20327;-67
2023/06/04 09:15:22;;;;;;;;;;;16.10;62.50;;;;;;4987482;28;20279;-66
2023/06/04 09:17:47;;;;;;;;;;;16.10;62.40;;;;;;4984196;28;19922;-66
2023/06/04 09:20:20;;;;;;;;;;;16.20;62.40;;;;;;4992560;28;20022;-66
2023/06/04 09:22:45;;;;;;;;;;;16.20;62.30;;;;;;4978219;28;19929;-66
2023/06/04 09:25:18;;;;;;;;;;;16.20;62.20;;;;;;4995058;28;20442;-66
2023/06/04 09:27:44;;;;;;;;;;;16.30;62.10;;;;;;4984055;28;19921;-67
2023/06/04 09:30:10;;;;;;;;;;;16.30;62.10;;;;;;4998538;28;20355;-67
2023/06/04 09:32:35;;;;;;;;;;;16.40;62.00;;;;;;4984569;28;19920;-66
2023/06/04 09:35:10;;;;;;;;;;;16.40;62.00;;;;;;4994043;28;20424;-66
2023/06/04 09:37:36;;;;;;;;;;;16.50;62.00;;;;;;4993134;28;19925;-66
2023/06/04 09:40:03;;;;;;;;;;;16.50;61.80;;;;;;4994023;28;19914;-67
2023/06/04 09:42:29;;;;;;;;;;;16.60;61.80;;;;;;4994037;28;20430;-66
2023/06/04 09:44:54;;;;;;;;;;;16.60;61.80;;;;;;4993159;28;19918;-67
2023/06/04 09:47:20;;;;;;;;;;;16.70;61.70;;;;;;4994396;28;19917;-67
2023/06/04 09:49:46;;;;;;;;;;;16.80;61.70;;;;;;4992654;28;20685;-67
2023/06/04 09:52:12;;;;;;;;;;;16.80;61.60;;;;;;4994377;28;19914;-66
2023/06/04 09:54:39;;;;;;;;;;;16.90;61.60;;;;;;4992118;28;20392;-66
2023/06/04 09:57:16;;;;;;;;;;;17.00;61.50;;;;;;5062623;28;19959;-66
2023/06/04 09:59:43;;;;;;;;;;;17.00;61.40;;;;;;4992109;28;19913;-67
2023/06/04 10:02:09;;;;;;;;;;;17.10;61.30;;;;;;4994368;28;20608;-67
2023/06/04 10:04:35;;;;;;;;;;;17.10;61.30;;;;;;4988653;28;19914;-66
2023/06/04 10:07:02;;;;;;;;;;;17.20;61.10;;;;;;4994567;28;19997;-67
2023/06/04 10:09:28;;;;;;;;;;;17.20;60.10;;;;;;4991870;28;19917;-67
2023/06/04 10:11:56;;;;;;;;;;;17.30;60.40;;;;;;4994013;28;19960;-67
2023/06/04 10:14:24;;;;;;;;;;;17.40;60.70;;;;;;4999277;28;19917;-66
2023/06/04 10:16:50;;;;;;;;;;;17.50;60.70;;;;;;4994431;28;20030;-66
2023/06/04 10:19:17;;;;;;;;;;;17.50;60.70;;;;;;4991328;28;19921;-66
2023/06/04 10:21:43;;;;;;;;;;;17.70;60.40;;;;;;4993784;28;19914;-67
2023/06/04 10:24:08;;;;;;;;;;;17.70;60.50;;;;;;4989881;28;19928;-66
2023/06/04 10:26:35;;;;;;;;;;;17.80;60.60;;;;;;4993782;28;19925;-66
2023/06/04 10:29:02;;;;;;;;;;;17.80;60.70;;;;;;4989285;28;20002;-67
2023/06/04 10:31:28;;;;;;;;;;;18.00;60.80;;;;;;4982264;28;19914;-67
2023/06/04 10:33:54;;;;;;;;;;;18.00;60.60;;;;;;4994126;28;19920;-67
2023/06/04 10:36:21;;;;;;;;;;;18.10;60.70;;;;;;4997151;28;19920;-67
2023/06/04 10:38:46;;;;;;;;;;;18.20;60.80;;;;;;4987391;28;19914;-66
2023/06/04 10:41:18;;;;;;;;;;;18.30;61.00;;;;;;4997945;28;19920;-67
2023/06/04 10:43:44;;;;;;;;;;;18.40;61.00;;;;;;4982647;28;20020;-67
2023/06/04 10:46:13;;;;;;;;;;;18.50;60.80;;;;;;4994360;28;20003;-67
2023/06/04 10:48:46;;;;;;;;;;;18.60;61.00;;;;;;4987585;28;20452;-67
2023/06/04 10:51:11;;;;;;;;;;;18.70;60.90;;;;;;4998297;28;20418;-67
2023/06/04 10:53:37;;;;;;;;;;;18.90;61.10;;;;;;4995485;28;19999;-67
2023/06/04 10:56:02;;;;;;;;;;;18.90;60.80;;;;;;4988814;28;19963;-67
2023/06/04 10:58:34;;;;;;;;;;;19.10;60.40;;;;;;5015526;28;19914;-67
2023/06/04 11:01:00;;;;;;;;;;;19.20;60.70;;;;;;4998964;28;19909;-67
2023/06/04 11:03:52;;;;;;;;;;;19.30;60.80;;;;;;5003832;28;19964;-66
2023/06/04 11:06:17;;;;;;;;;;;19.40;60.80;;;;;;4965253;28;20008;-66
2023/06/04 11:08:43;;;;;;;;;;;19.60;60.70;;;;;;4981285;28;20000;-67
2023/06/04 11:11:13;;;;;;;;;;;19.70;60.50;;;;;;4985007;28;19913;-67
2023/06/04 11:13:39;;;;;;;;;;;19.80;60.00;;;;;;4985111;28;19917;-67
2023/06/04 11:16:14;;;;;;;;;;;19.90;60.40;;;;;;4986159;28;19918;-67
2023/06/04 11:18:39;;;;;;;;;;;20.10;60.30;;;;;;4985199;28;19987;-67
2023/06/04 11:21:05;;;;;;;;;;;20.20;60.50;;;;;;4986448;28;20558;-67
2023/06/04 11:23:32;;;;;;;;;;;20.20;60.50;;;;;;4978997;28;19925;-67
2023/06/04 11:25:58;;;;;;;;;;;20.30;60.30;;;;;;4966897;28;19910;-67
2023/06/04 11:28:24;;;;;;;;;;;20.50;60.50;;;;;;4984352;28;19982;-67
2023/06/04 11:31:02;;;;;;;;;;;20.50;60.10;;;;;;4998688;28;20294;-67
2023/06/04 11:33:29;;;;;;;;;;;20.70;60.50;;;;;;4966480;28;19956;-67
2023/06/04 11:35:54;;;;;;;;;;;20.80;60.20;;;;;;4966930;28;20134;-67
2023/06/04 11:38:20;;;;;;;;;;;20.90;60.10;;;;;;4980687;28;20426;-67
2023/06/04 11:40:55;;;;;;;;;;;21.00;60.10;;;;;;5005502;28;19933;-67
2023/06/04 11:43:20;;;;;;;;;;;21.10;60.00;;;;;;5007929;28;19917;-67
2023/06/04 11:45:46;;;;;;;;;;;21.10;60.00;;;;;;5007606;28;19917;-67
2023/06/04 11:48:12;;;;;;;;;;;21.20;59.80;;;;;;5006638;28;19921;-67
2023/06/04 11:50:37;;;;;;;;;;;21.30;59.90;;;;;;5008276;28;19920;-67
2023/06/04 11:53:03;;;;;;;;;;;21.40;59.70;;;;;;5018512;28;19914;-67
2023/06/04 11:55:29;;;;;;;;;;;21.50;59.80;;;;;;4988624;28;19925;-67
2023/06/04 11:57:54;;;;;;;;;;;21.60;59.70;;;;;;4988945;28;20351;-67
2023/06/04 12:00:21;;;;;;;;;;;21.70;59.70;;;;;;4989329;28;19910;-67
2023/06/04 12:02:50;;;;;;;;;;;21.70;59.50;;;;;;4989064;28;20429;-67
2023/06/04 12:05:19;;;;;;;;;;;21.80;59.50;;;;;;5022584;28;19955;-67
2023/06/04 12:07:45;;;;;;;;;;;21.90;59.40;;;;;;5051040;28;20347;-67
2023/06/04 12:10:14;;;;;;;;;;;22.00;59.60;;;;;;4990117;28;19921;-67
2023/06/04 12:12:40;;;;;;;;;;;22.00;59.70;;;;;;4989702;28;19921;-70
2023/06/04 12:15:07;;;;;;;;;;;22.10;59.60;;;;;;4988566;28;19914;-70
2023/06/04 12:17:33;;;;;;;;;;;22.10;59.30;;;;;;4989875;28;19918;-70
2023/06/04 12:19:58;;;;;;;;;;;22.30;59.40;;;;;;4989150;28;19918;-70
2023/06/04 12:22:26;;;;;;;;;;;22.30;59.40;;;;;;4989578;28;19917;-70
2023/06/04 12:24:55;;;;;;;;;;;22.40;59.60;;;;;;4970785;28;20509;-70
2023/06/04 12:27:22;;;;;;;;;;;22.50;60.20;;;;;;4970077;28;20473;-70
2023/06/04 12:29:58;;;;;;;;;;;22.50;59.50;;;;;;4969915;28;20493;-69
2023/06/04 12:32:23;;;;;;;;;;;22.60;59.40;;;;;;4984197;28;19910;-70
2023/06/04 12:34:49;;;;;;;;;;;22.70;59.40;;;;;;4989716;28;19940;-70
2023/06/04 12:37:15;;;;;;;;;;;22.70;59.40;;;;;;5063610;28;19925;-70
2023/06/04 12:39:40;;;;;;;;;;;22.80;59.30;;;;;;4989148;28;19910;-70
2023/06/04 12:42:08;;;;;;;;;;;22.80;59.30;;;;;;4988434;28;19910;-70
2023/06/04 12:44:38;;;;;;;;;;;22.90;59.20;;;;;;4988426;28;19959;-70
2023/06/04 12:47:03;;;;;;;;;;;23.00;59.20;;;;;;4988239;28;19956;-70
2023/06/04 12:49:29;;;;;;;;;;;23.00;59.30;;;;;;4988702;28;19914;-71
2023/06/04 12:51:55;;;;;;;;;;;23.10;59.40;;;;;;4988526;28;19918;-70
2023/06/04 12:54:20;;;;;;;;;;;23.10;59.20;;;;;;4974711;28;19945;-71
2023/06/04 12:56:46;;;;;;;;;;;23.20;59.10;;;;;;4987936;28;20001;-70
2023/06/04 12:59:11;;;;;;;;;;;23.30;59.00;;;;;;4987215;28;19964;-70
2023/06/04 13:01:37;;;;;;;;;;;23.40;58.80;;;;;;4988277;28;19914;-70
2023/06/04 13:04:03;;;;;;;;;;;23.50;59.00;;;;;;4988497;28;19917;-70
2023/06/04 13:06:29;;;;;;;;;;;23.50;59.70;;;;;;4988246;28;19914;-70
2023/06/04 13:08:54;;;;;;;;;;;23.50;59.10;;;;;;4986926;28;20248;-70
2023/06/04 13:11:21;;;;;;;;;;;23.60;59.00;;;;;;4988467;28;19963;-70
2023/06/04 13:13:47;;;;;;;;;;;23.60;59.00;;;;;;4988143;28;20294;-70
2023/06/04 13:16:12;;;;;;;;;;;23.70;58.90;;;;;;4988015;28;19920;-70
2023/06/04 13:18:38;;;;;;;;;;;23.70;59.00;;;;;;4988308;28;19996;-70
2023/06/04 13:21:03;;;;;;;;;;;23.80;58.80;;;;;;5002161;28;20423;-70
2023/06/04 13:23:29;;;;;;;;;;;23.90;58.60;;;;;;4993833;28;19926;-70
2023/06/04 13:25:54;;;;;;;;;;;23.90;58.70;;;;;;4968689;28;19914;-70
2023/06/04 13:28:20;;;;;;;;;;;24.00;58.80;;;;;;4968979;28;19910;-70
2023/06/04 13:30:45;;;;;;;;;;;24.00;58.60;;;;;;4971340;28;20012;-70
2023/06/04 13:33:11;;;;;;;;;;;24.10;58.60;;;;;;4987776;28;19914;-70
2023/06/04 13:35:36;;;;;;;;;;;24.10;58.70;;;;;;4987955;28;19925;-70
2023/06/04 13:38:04;;;;;;;;;;;24.20;58.70;;;;;;4987762;28;19950;-70
2023/06/04 13:40:29;;;;;;;;;;;24.20;58.60;;;;;;4987781;28;19937;-70
2023/06/04 13:42:55;;;;;;;;;;;24.30;58.60;;;;;;4987602;28;20358;-70
2023/06/04 13:45:21;;;;;;;;;;;24.30;58.40;;;;;;4987725;28;19928;-70
2023/06/04 13:47:48;;;;;;;;;;;24.40;58.20;;;;;;4987832;28;19914;-70
2023/06/04 13:50:13;;;;;;;;;;;24.50;58.20;;;;;;4987873;28;19944;-70
2023/06/04 13:52:39;;;;;;;;;;;24.50;58.10;;;;;;4987657;28;19914;-70
2023/06/04 13:55:04;;;;;;;;;;;24.50;58.00;;;;;;4974166;28;19922;-70
2023/06/04 13:57:30;;;;;;;;;;;24.60;58.10;;;;;;5000326;28;19913;-70
2023/06/04 13:59:55;;;;;;;;;;;24.70;58.10;;;;;;4987558;28;19914;-70
2023/06/04 14:02:21;;;;;;;;;;;24.70;57.90;;;;;;4987128;28;19917;-70
2023/06/04 14:04:46;;;;;;;;;;;24.70;57.90;;;;;;4986273;28;19918;-70
2023/06/04 14:07:12;;;;;;;;;;;24.80;57.70;;;;;;4986238;28;20355;-70
2023/06/04 14:09:37;;;;;;;;;;;24.80;57.40;;;;;;4987559;28;19914;-70
2023/06/04 14:12:03;;;;;;;;;;;24.90;57.70;;;;;;4986980;28;19914;-70